createdAt,value
2018-07-08T00:01:13.155Z,101182.42
2018-07-08T00:03:41.230Z,101176.44
2018-07-08T00:06:09.271Z,101175.20
2018-07-08T00:08:37.336Z,101174.53
2018-07-08T00:11:05.428Z,101181.77
2018-07-08T00:13:33.467Z,101181.55
2018-07-08T00:16:01.528Z,101179.72
2018-07-08T00:18:30.571Z,101186.00
2018-07-08T00:20:58.680Z,101175.19
2018-07-08T00:23:26.715Z,101175.22
2018-07-08T00:25:54.866Z,101175.80
2018-07-08T00:28:23.792Z,101173.37
2018-07-08T00:30:51.835Z,101178.05
2018-07-08T00:33:19.908Z,101179.03
2018-07-08T00:35:47.943Z,101174.34
2018-07-08T00:38:16.012Z,101174.26
2018-07-08T00:40:44.084Z,101172.58
2018-07-08T00:43:12.160Z,101177.32
2018-07-08T00:45:40.232Z,101179.08
2018-07-08T00:48:08.315Z,101177.89
2018-07-08T00:50:36.627Z,101168.94
2018-07-08T00:53:04.760Z,101179.90
2018-07-08T00:55:32.836Z,101181.43
2018-07-08T00:58:00.907Z,101185.13
2018-07-08T01:00:31.580Z,101180.43
2018-07-08T01:03:00.406Z,101187.06
2018-07-08T01:05:28.993Z,101188.50
2018-07-08T01:07:57.412Z,101189.79
2018-07-08T01:10:25.484Z,101184.58
2018-07-08T01:12:53.561Z,101185.53
2018-07-08T01:15:21.627Z,101177.92
2018-07-08T01:17:50.761Z,101181.78
2018-07-08T01:20:18.900Z,101179.19
2018-07-08T01:22:46.979Z,101180.95
2018-07-08T01:25:16.128Z,101185.52
2018-07-08T01:27:44.256Z,101187.13
2018-07-08T01:30:13.544Z,101192.67
2018-07-08T01:32:41.609Z,101198.83
2018-07-08T01:35:09.681Z,101199.61
2018-07-08T01:37:37.760Z,101196.63
2018-07-08T01:40:06.500Z,101204.23
2018-07-08T01:42:34.620Z,101204.70
2018-07-08T01:45:02.716Z,101209.81
2018-07-08T01:47:30.864Z,101211.91
2018-07-08T01:49:58.968Z,101209.59
2018-07-08T01:52:27.143Z,101212.38
2018-07-08T01:54:55.816Z,101217.09
2018-07-08T01:57:24.716Z,101217.23
2018-07-08T01:59:52.987Z,101212.63
2018-07-08T02:02:21.722Z,101209.75
2018-07-08T02:04:50.708Z,101214.28
2018-07-08T02:07:18.821Z,101212.20
2018-07-08T02:09:47.400Z,101214.06
2018-07-08T02:12:15.873Z,101210.37
2018-07-08T02:14:44.452Z,101212.25
2018-07-08T02:17:12.561Z,101217.55
2018-07-08T02:19:40.837Z,101216.19
2018-07-08T02:22:09.256Z,101219.45
2018-07-08T02:24:37.350Z,101224.75
2018-07-08T02:27:06.016Z,101217.01
2018-07-08T02:29:34.658Z,101214.13
2018-07-08T02:32:02.704Z,101221.75
2018-07-08T02:34:30.994Z,101220.37
2018-07-08T02:36:59.329Z,101220.87
2018-07-08T02:39:27.905Z,101217.17
2018-07-08T02:41:56.225Z,101221.58
2018-07-08T02:44:24.360Z,101225.73
2018-07-08T02:46:53.233Z,101225.73
2018-07-08T02:49:21.699Z,101228.70
2018-07-08T02:51:49.804Z,101220.64
2018-07-08T02:54:18.132Z,101222.02
2018-07-08T02:56:46.830Z,101233.34
2018-07-08T02:59:14.940Z,101232.52
2018-07-08T03:01:43.016Z,101234.72
2018-07-08T03:04:11.092Z,101222.83
2018-07-08T03:06:39.180Z,101218.80
2018-07-08T03:09:08.372Z,101221.70
2018-07-08T03:11:36.484Z,101223.66
2018-07-08T03:14:04.708Z,101221.70
2018-07-08T03:16:32.775Z,101218.11
2018-07-08T03:19:01.028Z,101223.08
2018-07-08T03:21:29.089Z,101220.88
2018-07-08T03:23:57.211Z,101222.27
2018-07-08T03:26:25.719Z,101230.78
2018-07-08T03:28:54.033Z,101209.58
2018-07-08T03:31:22.193Z,101237.01
2018-07-08T03:33:56.944Z,101235.30
2018-07-08T03:36:25.089Z,101242.91
2018-07-08T03:38:53.297Z,101238.62
2018-07-08T03:41:21.477Z,101240.70
2018-07-08T03:43:49.764Z,101241.84
2018-07-08T03:46:18.085Z,101245.09
2018-07-08T03:48:46.376Z,101252.70
2018-07-08T03:51:14.433Z,101254.77
2018-07-08T03:53:42.532Z,101256.03
2018-07-08T03:56:10.620Z,101256.84
2018-07-08T03:58:40.690Z,101264.21
2018-07-08T04:01:08.759Z,101259.36
2018-07-08T04:03:37.388Z,101257.27
2018-07-08T04:06:05.492Z,101259.78
2018-07-08T04:08:33.560Z,101262.78
2018-07-08T04:11:01.604Z,101262.29
2018-07-08T04:13:29.686Z,101260.31
2018-07-08T04:15:57.715Z,101262.05
2018-07-08T04:18:25.775Z,101262.73
2018-07-08T04:20:53.836Z,101261.33
2018-07-08T04:23:21.892Z,101260.15
2018-07-08T04:25:49.992Z,101262.43
2018-07-08T04:28:18.294Z,101258.66
2018-07-08T04:30:46.516Z,101258.89
2018-07-08T04:33:14.701Z,101262.50
2018-07-08T04:35:42.800Z,101261.00
2018-07-08T04:38:10.986Z,101254.90
2018-07-08T04:40:39.034Z,101260.69
2018-07-08T04:43:07.103Z,101256.09
2018-07-08T04:45:35.172Z,101251.70
2018-07-08T04:48:03.252Z,101249.84
2018-07-08T04:50:31.330Z,101248.14
2018-07-08T04:52:59.413Z,101252.69
2018-07-08T04:55:27.509Z,101253.70
2018-07-08T04:57:55.580Z,101251.65
2018-07-08T05:00:23.628Z,101256.42
2018-07-08T05:02:51.688Z,101257.48
2018-07-08T05:05:20.060Z,101247.29
2018-07-08T05:07:48.121Z,101261.19
2018-07-08T05:10:16.155Z,101256.52
2018-07-08T05:12:44.487Z,101264.41
2018-07-08T05:15:12.543Z,101259.73
2018-07-08T05:17:40.728Z,101272.18
2018-07-08T05:20:08.803Z,101266.55
2018-07-08T05:22:36.848Z,101262.98
2018-07-08T05:25:05.008Z,101260.83
2018-07-08T05:27:33.103Z,101263.72
2018-07-08T05:30:01.135Z,101257.52
2018-07-08T05:32:29.231Z,101259.75
2018-07-08T05:34:57.290Z,101257.45
2018-07-08T05:37:25.327Z,101253.94
2018-07-08T05:39:53.367Z,101257.15
2018-07-08T05:42:21.653Z,101264.23
2018-07-08T05:44:50.042Z,101259.61
2018-07-08T05:47:18.360Z,101260.50
2018-07-08T05:49:46.708Z,101262.34
2018-07-08T05:52:20.487Z,101255.83
2018-07-08T05:54:49.046Z,101257.89
2018-07-08T05:57:17.458Z,101257.56
2018-07-08T05:59:45.692Z,101264.31
2018-07-08T06:02:14.308Z,101257.13
2018-07-08T06:04:42.632Z,101258.17
2018-07-08T06:07:10.615Z,101250.31
2018-07-08T06:09:38.651Z,101249.57
2018-07-08T06:12:08.108Z,101251.77
2018-07-08T06:14:36.157Z,101256.52
2018-07-08T06:17:04.212Z,101251.64
2018-07-08T06:19:32.290Z,101262.88
2018-07-08T06:22:00.470Z,101253.20
2018-07-08T06:24:28.706Z,101247.70
2018-07-08T06:26:56.772Z,101246.00
2018-07-08T06:29:24.792Z,101256.06
2018-07-08T06:31:52.864Z,101245.66
2018-07-08T06:34:20.908Z,101246.87
2018-07-08T06:36:48.978Z,101246.89
2018-07-08T06:39:17.117Z,101244.48
2018-07-08T06:41:45.141Z,101246.27
2018-07-08T06:44:13.192Z,101243.44
2018-07-08T06:46:41.261Z,101245.27
2018-07-08T06:49:09.357Z,101243.42
2018-07-08T06:51:37.423Z,101242.30
2018-07-08T06:54:05.544Z,101244.66
2018-07-08T06:56:33.597Z,101251.31
2018-07-08T06:59:01.661Z,101249.66
2018-07-08T07:01:29.851Z,101253.67
2018-07-08T07:03:57.918Z,101261.06
2018-07-08T07:06:25.987Z,101251.72
2018-07-08T07:08:54.100Z,101253.47
2018-07-08T07:11:23.023Z,101258.15
2018-07-08T07:13:51.084Z,101262.36
2018-07-08T07:16:19.137Z,101248.56
2018-07-08T07:18:47.205Z,101246.69
2018-07-08T07:21:15.419Z,101251.28
2018-07-08T07:23:43.455Z,101246.28
2018-07-08T07:26:12.751Z,101249.80
2018-07-08T07:28:40.852Z,101247.95
2018-07-08T07:31:08.872Z,101250.44
2018-07-08T07:33:36.944Z,101244.30
2018-07-08T07:36:05.185Z,101246.52
2018-07-08T07:38:33.361Z,101249.89
2018-07-08T07:41:01.451Z,101249.88
2018-07-08T07:43:29.507Z,101252.22
2018-07-08T07:45:57.919Z,101253.38
2018-07-08T07:48:25.975Z,101249.57
2018-07-08T07:50:54.055Z,101244.03
2018-07-08T07:53:22.101Z,101244.52
2018-07-08T07:55:50.158Z,101252.83
2018-07-08T07:58:18.368Z,101254.57
2018-07-08T08:00:46.419Z,101257.92
2018-07-08T08:03:14.495Z,101257.55
2018-07-08T08:05:42.568Z,101248.58
2018-07-08T08:08:10.659Z,101242.89
2018-07-08T08:10:39.394Z,101241.45
2018-07-08T08:13:07.807Z,101245.17
2018-07-08T08:15:35.849Z,101244.06
2018-07-08T08:18:03.924Z,101232.33
2018-07-08T08:20:31.972Z,101233.14
2018-07-08T08:23:01.648Z,101235.06
2018-07-08T08:25:29.688Z,101229.23
2018-07-08T08:27:57.796Z,101233.53
2018-07-08T08:30:26.795Z,101237.69
2018-07-08T08:32:55.660Z,101243.63
2018-07-08T08:35:24.502Z,101245.38
2018-07-08T08:37:54.533Z,101249.02
2018-07-08T08:40:25.876Z,101251.12
2018-07-08T08:42:54.371Z,101202.38
2018-07-08T08:45:23.720Z,101241.69
2018-07-08T08:47:51.774Z,101246.69
2018-07-08T08:50:19.864Z,101249.53
2018-07-08T08:52:47.945Z,101252.01
2018-07-08T08:55:16.029Z,101240.17
2018-07-08T08:57:44.858Z,101236.63
2018-07-08T09:00:16.843Z,101246.95
2018-07-08T09:02:47.443Z,101245.17
2018-07-08T09:05:15.721Z,101244.88
2018-07-08T09:07:44.159Z,101244.27
2018-07-08T09:10:12.312Z,101245.98
2018-07-08T09:12:44.089Z,101247.44
2018-07-08T09:15:13.595Z,101242.76
2018-07-08T09:17:42.834Z,101242.17
2018-07-08T09:20:10.971Z,101237.20
2018-07-08T09:22:39.050Z,101238.55
2018-07-08T09:25:07.557Z,101247.86
2018-07-08T09:27:35.838Z,101241.41
2018-07-08T09:30:04.983Z,101247.09
2018-07-08T09:32:34.022Z,101237.64
2018-07-08T09:35:02.199Z,101237.98
2018-07-08T09:37:30.808Z,101237.45
2018-07-08T09:39:58.947Z,101242.18
2018-07-08T09:42:27.492Z,101241.09
2018-07-08T09:44:55.801Z,101249.81
2018-07-08T09:47:25.597Z,101241.34
2018-07-08T09:49:53.891Z,101247.60
2018-07-08T09:52:22.021Z,101244.31
2018-07-08T12:27:40.627Z,101197.04
2018-07-08T12:30:08.727Z,101183.64
2018-07-08T12:32:36.836Z,101184.22
2018-07-08T12:35:04.908Z,101194.58
2018-07-08T12:37:33.000Z,101182.53
2018-07-08T12:40:01.045Z,101184.84
2018-07-08T12:42:29.129Z,101175.57
2018-07-08T12:44:57.773Z,101180.23
2018-07-08T12:47:26.111Z,101172.16
2018-07-08T12:49:54.938Z,101169.02
2018-07-08T12:52:24.771Z,101176.14
2018-07-08T12:54:53.499Z,101173.43
2018-07-08T12:57:22.791Z,101169.73
2018-07-08T12:59:51.564Z,101164.94
2018-07-08T13:02:19.592Z,101166.93
2018-07-08T13:04:47.716Z,101165.03
2018-07-08T13:07:16.331Z,101163.86
2018-07-08T13:09:44.805Z,101143.09
2018-07-08T13:12:12.843Z,101165.56
2018-07-08T13:14:40.868Z,101164.50
2018-07-08T13:17:08.960Z,101157.70
2018-07-08T13:19:37.357Z,101148.39
2018-07-08T13:22:05.411Z,101149.16
2018-07-08T13:24:33.460Z,101155.00
2018-07-08T13:27:01.520Z,101143.41
2018-07-08T13:29:30.396Z,101152.73
2018-07-08T13:31:58.518Z,101162.28
2018-07-08T13:34:27.441Z,101149.03
2018-07-08T13:36:55.483Z,101149.66
2018-07-08T13:39:23.705Z,101142.06
2018-07-08T13:41:51.814Z,101151.75
2018-07-08T13:44:19.863Z,101145.19
2018-07-08T13:46:48.147Z,101146.30
2018-07-08T13:49:16.255Z,101147.14
2018-07-08T13:51:44.295Z,101146.98
2018-07-08T13:54:12.928Z,101147.48
2018-07-08T13:56:41.073Z,101147.78
2018-07-08T13:59:09.116Z,101152.31
2018-07-08T14:01:37.200Z,101153.22
2018-07-08T14:04:05.654Z,101151.62
2018-07-08T14:06:33.765Z,101148.42
2018-07-08T14:09:01.862Z,101151.69
2018-07-08T14:11:30.055Z,101141.98
2018-07-08T14:13:58.098Z,101140.27
2018-07-08T14:16:26.142Z,101128.71
2018-07-08T14:18:54.192Z,101132.32
2018-07-08T14:21:22.220Z,101134.07
2018-07-08T14:23:50.235Z,101132.86
2018-07-08T14:26:18.287Z,101137.19
2018-07-08T14:28:46.340Z,101127.80
2018-07-08T14:31:14.433Z,101128.12
2018-07-08T14:33:42.437Z,101128.96
2018-07-08T14:36:10.477Z,101124.95
2018-07-08T14:38:38.815Z,101126.97
2018-07-08T14:41:06.844Z,101117.91
2018-07-08T14:43:34.900Z,101122.51
2018-07-08T14:46:02.982Z,101123.86
2018-07-08T14:48:31.015Z,101124.19
2018-07-08T14:50:59.043Z,101116.48
2018-07-08T14:53:27.092Z,101112.47
2018-07-08T14:55:55.135Z,101112.85
2018-07-08T14:58:23.784Z,101114.44
2018-07-08T15:00:52.059Z,101115.30
2018-07-08T15:03:20.498Z,101118.77
2018-07-08T15:05:48.872Z,101120.05
2018-07-08T15:08:16.956Z,101118.31
2018-07-08T15:10:45.027Z,101105.84
2018-07-08T15:13:13.428Z,101110.20
2018-07-08T15:15:41.482Z,101113.17
2018-07-08T15:18:09.591Z,101115.91
2018-07-08T15:20:37.666Z,101105.75
2018-07-08T15:23:05.712Z,101114.87
2018-07-08T15:25:34.032Z,101107.19
2018-07-08T15:28:02.060Z,101098.31
2018-07-08T15:30:30.216Z,101091.49
2018-07-08T15:32:58.372Z,101099.37
2018-07-08T15:35:26.721Z,101096.69
2018-07-08T15:37:54.928Z,101093.66
2018-07-08T15:40:23.091Z,101094.13
2018-07-08T15:42:51.381Z,101088.41
2018-07-08T15:45:19.781Z,101098.97
2018-07-08T15:47:48.248Z,101096.17
2018-07-08T15:50:16.288Z,101087.23
2018-07-08T15:52:44.320Z,101096.62
2018-07-08T15:55:13.039Z,101090.52
2018-07-08T15:57:41.082Z,101090.17
2018-07-08T16:00:09.162Z,101082.97
2018-07-08T16:02:37.275Z,101083.88
2018-07-08T16:05:05.333Z,101084.23
2018-07-08T16:07:33.443Z,101085.34
2018-07-08T16:10:01.553Z,101081.85
2018-07-08T16:12:29.595Z,101075.77
2018-07-08T16:14:57.678Z,101085.59
2018-07-08T16:17:25.730Z,101080.08
2018-07-08T16:19:54.050Z,101083.77
2018-07-08T16:22:22.123Z,101083.83
2018-07-08T16:24:50.619Z,101086.72
2018-07-08T16:27:18.676Z,101082.53
2018-07-08T16:29:46.753Z,101081.61
2018-07-08T16:32:14.815Z,101087.12
2018-07-08T16:34:43.506Z,101083.06
2018-07-08T16:37:11.546Z,101087.56
2018-07-08T16:39:40.055Z,101082.11
2018-07-08T16:42:08.256Z,101087.70
2018-07-08T16:44:36.843Z,101075.45
2018-07-08T16:47:04.946Z,101074.08
2018-07-08T16:49:33.069Z,101077.53
2018-07-08T16:52:01.195Z,101079.67
2018-07-08T16:54:29.250Z,101089.11
2018-07-08T16:56:57.967Z,101082.10
2018-07-08T16:59:26.018Z,101078.31
2018-07-08T17:01:54.106Z,101078.81
2018-07-08T17:04:23.111Z,101075.66
2018-07-08T17:06:51.179Z,101078.55
2018-07-08T17:09:19.800Z,101070.34
2018-07-08T17:11:47.899Z,101074.74
2018-07-08T17:14:15.968Z,101064.25
2018-07-08T17:16:44.172Z,101065.88
2018-07-08T17:19:12.253Z,101074.98
2018-07-08T17:21:40.479Z,101066.02
2018-07-08T17:24:08.547Z,101069.71
2018-07-08T17:26:37.021Z,101062.76
2018-07-08T17:29:05.118Z,101061.78
2018-07-08T17:31:33.179Z,101067.16
2018-07-08T17:34:01.231Z,101070.58
2018-07-08T17:36:29.315Z,101061.13
2018-07-08T17:38:57.361Z,101063.21
2018-07-08T17:41:25.434Z,101064.39
2018-07-08T17:43:53.588Z,101066.12
2018-07-08T17:46:22.449Z,101060.09
2018-07-08T17:48:50.640Z,101063.40
2018-07-08T17:51:18.669Z,101064.39
2018-07-08T17:53:46.748Z,101067.76
2018-07-08T17:56:15.292Z,101070.30
2018-07-08T17:58:43.543Z,101069.15
2018-07-08T18:01:11.600Z,101074.84
2018-07-08T18:03:39.640Z,101066.34
2018-07-08T18:06:07.923Z,101071.31
2018-07-08T18:08:36.011Z,101067.89
2018-07-08T18:11:04.039Z,101070.36
2018-07-08T18:13:32.095Z,101081.33
2018-07-08T18:16:00.160Z,101079.78
2018-07-08T18:18:28.343Z,101076.23
2018-07-08T18:20:56.441Z,101081.56
2018-07-08T18:23:25.022Z,101082.88
2018-07-08T18:25:53.838Z,101077.84
2018-07-08T18:28:21.948Z,101069.52
2018-07-08T18:30:51.058Z,101071.32
2018-07-08T18:33:19.232Z,101068.50
2018-07-08T18:35:47.415Z,101073.42
2018-07-08T18:38:15.668Z,101070.09
2018-07-08T18:40:43.840Z,101073.95
2018-07-08T18:43:11.955Z,101073.35
2018-07-08T18:45:40.029Z,101066.92
2018-07-08T18:48:08.101Z,101066.56
2018-07-08T18:50:36.192Z,101077.42
2018-07-08T18:53:04.909Z,101078.53
2018-07-08T18:55:33.248Z,101080.91
2018-07-08T18:58:01.319Z,101082.07
2018-07-08T19:00:30.296Z,101086.09
2018-07-08T19:02:58.452Z,101092.00
2018-07-08T19:05:26.635Z,101093.17
2018-07-08T19:07:55.832Z,101100.16
2018-07-08T19:10:24.784Z,101097.39
2018-07-08T19:12:53.538Z,101094.84
2018-07-08T19:15:21.588Z,101104.59
2018-07-08T19:17:49.682Z,101103.98
2018-07-08T19:20:17.979Z,101102.09
2018-07-08T19:22:47.857Z,101107.72
2018-07-08T19:25:16.300Z,101107.11
2018-07-08T19:27:44.659Z,101111.09
2018-07-08T19:30:12.776Z,101115.34
2018-07-08T19:32:40.865Z,101109.77
2018-07-08T19:35:09.840Z,101108.67
2018-07-08T19:37:37.910Z,101113.47
2018-07-08T19:40:05.987Z,101111.73
2018-07-08T19:42:34.117Z,101113.35
2018-07-08T19:45:02.492Z,101115.44
2018-07-08T19:47:30.688Z,101117.45
2018-07-08T19:49:58.751Z,101117.28
2018-07-08T19:52:27.578Z,101120.49
2018-07-08T19:55:02.693Z,101126.34
2018-07-08T19:57:31.784Z,101122.59
2018-07-08T19:59:59.835Z,101124.02
2018-07-08T20:02:29.475Z,101123.66
2018-07-08T20:04:57.816Z,101128.90
2018-07-08T20:07:25.928Z,101127.52
2018-07-08T20:09:54.045Z,101129.34
2018-07-08T20:12:22.098Z,101128.37
2018-07-08T20:14:50.308Z,101130.80
2018-07-08T20:17:18.703Z,101131.22
2018-07-08T20:19:47.855Z,101131.64
2018-07-08T20:22:16.446Z,101139.03
2018-07-08T20:24:44.865Z,101133.84
2018-07-08T20:27:13.147Z,101139.23
2018-07-08T20:29:41.288Z,101147.86
2018-07-08T20:32:10.363Z,101145.64
2018-07-08T20:34:38.803Z,101147.44
2018-07-08T20:37:07.143Z,101150.05
2018-07-08T20:39:35.209Z,101152.25
2018-07-08T20:42:04.164Z,101147.86
2018-07-08T20:44:32.263Z,101156.85
2018-07-08T20:47:00.570Z,101159.05
2018-07-08T20:49:28.773Z,101156.05
2018-07-08T20:51:58.030Z,101155.66
2018-07-08T20:54:26.323Z,101163.44
2018-07-08T20:56:54.528Z,101168.65
2018-07-08T20:59:22.799Z,101168.22
2018-07-08T21:01:51.174Z,101163.61
2018-07-08T21:04:19.851Z,101173.80
2018-07-08T21:06:48.305Z,101166.91
2018-07-08T21:09:16.804Z,101165.89
2018-07-08T21:11:44.929Z,101168.27
2018-07-08T21:14:13.441Z,101173.40
2018-07-08T21:16:41.543Z,101180.34
2018-07-08T21:19:09.632Z,101180.13
2018-07-08T21:21:38.077Z,101181.72
2018-07-08T21:24:06.421Z,101181.12
2018-07-08T21:26:34.604Z,101182.09
2018-07-08T21:29:03.860Z,101181.17
2018-07-08T21:31:32.322Z,101177.00
2018-07-08T21:34:00.417Z,101186.37
2018-07-08T21:36:28.804Z,101177.34
2018-07-08T21:38:56.871Z,101185.02
2018-07-08T21:41:24.954Z,101187.02
2018-07-08T21:43:53.081Z,101187.72
2018-07-08T21:46:21.167Z,101186.88
2018-07-08T21:48:49.237Z,101194.20
2018-07-08T21:51:17.435Z,101196.92
2018-07-08T21:53:45.521Z,101189.97
2018-07-08T21:56:14.226Z,101197.95
2018-07-08T21:58:42.295Z,101196.70
2018-07-08T22:01:20.519Z,101196.66
2018-07-08T22:03:48.913Z,101197.46
2018-07-08T22:06:17.777Z,101199.59
2018-07-08T22:08:46.034Z,101197.97
2018-07-08T22:11:14.122Z,101198.38
2018-07-08T22:13:42.953Z,101202.71
2018-07-08T22:16:11.072Z,101196.09
2018-07-08T22:18:39.319Z,101195.27
2018-07-08T22:21:08.325Z,101192.44
2018-07-08T22:23:36.679Z,101191.01
2018-07-08T22:26:04.894Z,101195.95
2018-07-08T22:28:33.823Z,101192.91
2018-07-08T22:31:02.236Z,101187.50
2018-07-08T22:33:31.396Z,101186.84
2018-07-08T22:35:59.636Z,101188.38
2018-07-08T22:38:27.930Z,101187.05
2018-07-08T22:40:58.929Z,101202.80
2018-07-08T22:43:27.702Z,101204.95
2018-07-08T22:45:56.464Z,101200.36
2018-07-08T22:48:24.668Z,101195.32
2018-07-08T22:50:53.087Z,101193.52
2018-07-08T22:53:21.715Z,101196.84
2018-07-08T22:55:50.089Z,101201.38
2018-07-08T22:58:18.593Z,101193.98
2018-07-08T23:00:58.106Z,101190.56
2018-07-08T23:03:48.055Z,101192.50
2018-07-08T23:06:17.109Z,101185.64
2018-07-08T23:08:45.446Z,101195.94
2018-07-08T23:11:14.094Z,101189.76
2018-07-08T23:13:42.385Z,101190.06
2018-07-08T23:16:10.639Z,101195.00
2018-07-08T23:18:38.733Z,101189.77
2018-07-08T23:21:06.973Z,101192.45
2018-07-08T23:23:35.105Z,101199.17
2018-07-08T23:26:03.288Z,101196.33
2018-07-08T23:28:32.338Z,101203.37
2018-07-08T23:31:00.388Z,101203.70
2018-07-08T23:33:28.655Z,101201.89
2018-07-08T23:35:56.988Z,101201.83
2018-07-08T23:38:25.155Z,101196.42
2018-07-08T23:40:53.511Z,101201.77
2018-07-08T23:43:21.877Z,101197.37
2018-07-08T23:45:50.095Z,101195.78
2018-07-08T23:48:18.305Z,101196.53
2018-07-08T23:50:46.491Z,101200.06
2018-07-08T23:53:14.920Z,101193.41
2018-07-08T23:55:42.988Z,101198.55
2018-07-08T23:58:11.036Z,101193.25
